sensor_id;sensor_type;location;lat;lon;timestamp;temperature;humidity
56428;DHT22;42331;53.578;9.760;2022-08-19T00:01:53;19.20;99.90
56428;DHT22;42331;53.578;9.760;2022-08-19T00:04:28;19.20;99.90
56428;DHT22;42331;53.578;9.760;2022-08-19T00:06:59;19.20;99.90
56428;DHT22;42331;53.578;9.760;2022-08-19T00:09:30;19.20;99.90
56428;DHT22;42331;53.578;9.760;2022-08-19T00:12:02;19.10;99.90
56428;DHT22;42331;53.578;9.760;2022-08-19T00:14:33;19.10;99.90
56428;DHT22;42331;53.578;9.760;2022-08-19T00:17:05;19.10;99.90
56428;DHT22;42331;53.578;9.760;2022-08-19T00:19:37;19.10;99.90
56428;DHT22;42331;53.578;9.760;2022-08-19T00:22:08;19.10;99.90
56428;DHT22;42331;53.578;9.760;2022-08-19T00:24:39;19.10;99.90
56428;DHT22;42331;53.578;9.760;2022-08-19T00:27:14;19.20;99.90
56428;DHT22;42331;53.578;9.760;2022-08-19T00:29:45;19.10;99.90
56428;DHT22;42331;53.578;9.760;2022-08-19T00:32:16;19.10;99.90
56428;DHT22;42331;53.578;9.760;2022-08-19T00:34:52;19.10;99.90
56428;DHT22;42331;53.578;9.760;2022-08-19T00:37:32;19.20;99.90
56428;DHT22;42331;53.578;9.760;2022-08-19T00:40:07;19.20;99.90
56428;DHT22;42331;53.578;9.760;2022-08-19T00:42:41;19.20;99.90
56428;DHT22;42331;53.578;9.760;2022-08-19T00:45:18;19.20;99.90
56428;DHT22;42331;53.578;9.760;2022-08-19T00:47:52;19.20;99.90
56428;DHT22;42331;53.578;9.760;2022-08-19T00:50:23;19.20;99.90
56428;DHT22;42331;53.578;9.760;2022-08-19T00:52:54;19.20;99.90
56428;DHT22;42331;53.578;9.760;2022-08-19T00:55:26;19.20;99.90
56428;DHT22;42331;53.578;9.760;2022-08-19T00:58:08;19.20;99.90
56428;DHT22;42331;53.578;9.760;2022-08-19T01:00:51;19.10;99.90
56428;DHT22;42331;53.578;9.760;2022-08-19T01:03:22;19.20;99.90
56428;DHT22;42331;53.578;9.760;2022-08-19T01:05:53;19.20;99.90
56428;DHT22;42331;53.578;9.760;2022-08-19T01:08:28;19.10;99.90
56428;DHT22;42331;53.578;9.760;2022-08-19T01:10:59;19.10;99.90
56428;DHT22;42331;53.578;9.760;2022-08-19T01:13:33;19.00;99.90
56428;DHT22;42331;53.578;9.760;2022-08-19T01:16:08;19.00;99.90
56428;DHT22;42331;53.578;9.760;2022-08-19T01:18:56;19.00;99.90
56428;DHT22;42331;53.578;9.760;2022-08-19T01:24:48;19.10;99.90
56428;DHT22;42331;53.578;9.760;2022-08-19T01:27:24;19.10;99.90
56428;DHT22;42331;53.578;9.760;2022-08-19T01:29:58;19.10;99.90
56428;DHT22;42331;53.578;9.760;2022-08-19T01:32:32;19.10;99.90
56428;DHT22;42331;53.578;9.760;2022-08-19T01:35:06;19.10;99.90
56428;DHT22;42331;53.578;9.760;2022-08-19T01:38:02;19.10;99.90
56428;DHT22;42331;53.578;9.760;2022-08-19T01:40:45;19.10;99.90
56428;DHT22;42331;53.578;9.760;2022-08-19T01:43:18;19.10;99.90
56428;DHT22;42331;53.578;9.760;2022-08-19T01:45:49;19.20;99.90
56428;DHT22;42331;53.578;9.760;2022-08-19T01:48:24;19.10;99.90
56428;DHT22;42331;53.578;9.760;2022-08-19T01:50:55;19.10;99.90
56428;DHT22;42331;53.578;9.760;2022-08-19T01:53:34;19.10;99.90
56428;DHT22;42331;53.578;9.760;2022-08-19T01:56:06;19.00;99.90
56428;DHT22;42331;53.578;9.760;2022-08-19T01:58:49;19.10;99.90
56428;DHT22;42331;53.578;9.760;2022-08-19T02:01:29;19.10;99.90
56428;DHT22;42331;53.578;9.760;2022-08-19T02:04:10;19.10;99.90
56428;DHT22;42331;53.578;9.760;2022-08-19T02:06:45;19.00;99.90
56428;DHT22;42331;53.578;9.760;2022-08-19T02:09:19;19.10;99.90
56428;DHT22;42331;53.578;9.760;2022-08-19T02:11:50;19.10;99.90
56428;DHT22;42331;53.578;9.760;2022-08-19T02:14:32;19.10;99.90
56428;DHT22;42331;53.578;9.760;2022-08-19T02:17:07;19.10;99.90
56428;DHT22;42331;53.578;9.760;2022-08-19T02:19:51;19.00;99.90
56428;DHT22;42331;53.578;9.760;2022-08-19T02:22:36;19.00;99.90
56428;DHT22;42331;53.578;9.760;2022-08-19T02:25:12;19.00;99.90
56428;DHT22;42331;53.578;9.760;2022-08-19T02:27:49;18.90;99.90
56428;DHT22;42331;53.578;9.760;2022-08-19T02:30:27;18.90;99.90
56428;DHT22;42331;53.578;9.760;2022-08-19T02:32:58;18.80;99.90
56428;DHT22;42331;53.578;9.760;2022-08-19T02:35:31;18.80;99.90
56428;DHT22;42331;53.578;9.760;2022-08-19T02:38:08;18.80;99.90
56428;DHT22;42331;53.578;9.760;2022-08-19T02:41:03;18.80;99.90
56428;DHT22;42331;53.578;9.760;2022-08-19T02:43:40;18.80;99.90
56428;DHT22;42331;53.578;9.760;2022-08-19T02:46:24;18.90;99.90
56428;DHT22;42331;53.578;9.760;2022-08-19T02:49:04;18.80;99.90
56428;DHT22;42331;53.578;9.760;2022-08-19T02:51:47;18.80;99.90
56428;DHT22;42331;53.578;9.760;2022-08-19T02:54:28;18.80;99.90
56428;DHT22;42331;53.578;9.760;2022-08-19T02:56:59;18.80;99.90
56428;DHT22;42331;53.578;9.760;2022-08-19T02:59:35;18.80;99.90
56428;DHT22;42331;53.578;9.760;2022-08-19T03:02:07;18.80;99.90
56428;DHT22;42331;53.578;9.760;2022-08-19T03:04:37;18.80;99.90
56428;DHT22;42331;53.578;9.760;2022-08-19T03:07:09;18.70;99.90
56428;DHT22;42331;53.578;9.760;2022-08-19T03:09:46;18.70;99.90
56428;DHT22;42331;53.578;9.760;2022-08-19T03:12:17;18.70;99.90
56428;DHT22;42331;53.578;9.760;2022-08-19T03:14:53;18.70;99.90
56428;DHT22;42331;53.578;9.760;2022-08-19T03:17:32;18.70;99.90
56428;DHT22;42331;53.578;9.760;2022-08-19T03:20:05;18.80;99.90
56428;DHT22;42331;53.578;9.760;2022-08-19T03:22:36;18.80;99.90
56428;DHT22;42331;53.578;9.760;2022-08-19T03:25:07;18.80;99.90
56428;DHT22;42331;53.578;9.760;2022-08-19T03:27:41;18.80;99.90
56428;DHT22;42331;53.578;9.760;2022-08-19T03:30:20;18.70;99.90
56428;DHT22;42331;53.578;9.760;2022-08-19T03:32:51;18.70;99.90
56428;DHT22;42331;53.578;9.760;2022-08-19T03:35:23;18.70;99.90
56428;DHT22;42331;53.578;9.760;2022-08-19T03:37:58;18.70;99.90
56428;DHT22;42331;53.578;9.760;2022-08-19T03:40:45;18.70;99.90
56428;DHT22;42331;53.578;9.760;2022-08-19T03:43:18;18.60;99.90
56428;DHT22;42331;53.578;9.760;2022-08-19T03:49:03;18.60;99.90
56428;DHT22;42331;53.578;9.760;2022-08-19T03:51:41;18.60;99.90
56428;DHT22;42331;53.578;9.760;2022-08-19T03:54:21;18.60;99.90
56428;DHT22;42331;53.578;9.760;2022-08-19T03:57:19;18.60;99.90
56428;DHT22;42331;53.578;9.760;2022-08-19T03:59:55;18.50;99.90
56428;DHT22;42331;53.578;9.760;2022-08-19T04:02:26;18.50;99.90
56428;DHT22;42331;53.578;9.760;2022-08-19T04:04:57;18.50;99.90
56428;DHT22;42331;53.578;9.760;2022-08-19T04:07:27;18.50;99.90
56428;DHT22;42331;53.578;9.760;2022-08-19T04:09:58;18.30;99.90
56428;DHT22;42331;53.578;9.760;2022-08-19T04:12:31;18.30;99.90
56428;DHT22;42331;53.578;9.760;2022-08-19T04:15:03;18.30;99.90
56428;DHT22;42331;53.578;9.760;2022-08-19T04:17:34;18.20;99.90
56428;DHT22;42331;53.578;9.760;2022-08-19T04:20:05;18.20;99.90
56428;DHT22;42331;53.578;9.760;2022-08-19T04:22:36;18.20;99.90
56428;DHT22;42331;53.578;9.760;2022-08-19T04:25:06;18.20;99.90
56428;DHT22;42331;53.578;9.760;2022-08-19T04:27:39;18.20;99.90
56428;DHT22;42331;53.578;9.760;2022-08-19T04:30:10;18.20;99.90
56428;DHT22;42331;53.578;9.760;2022-08-19T04:32:41;18.20;99.90
56428;DHT22;42331;53.578;9.760;2022-08-19T04:35:14;18.20;99.90
56428;DHT22;42331;53.578;9.760;2022-08-19T04:37:44;18.20;99.90
56428;DHT22;42331;53.578;9.760;2022-08-19T04:40:15;18.20;99.90
56428;DHT22;42331;53.578;9.760;2022-08-19T04:43:05;18.10;99.90
56428;DHT22;42331;53.578;9.760;2022-08-19T04:45:36;18.10;99.90
56428;DHT22;42331;53.578;9.760;2022-08-19T04:48:07;18.10;99.90
56428;DHT22;42331;53.578;9.760;2022-08-19T04:50:42;18.20;99.90
56428;DHT22;42331;53.578;9.760;2022-08-19T04:53:13;18.20;99.90
56428;DHT22;42331;53.578;9.760;2022-08-19T04:55:44;18.10;99.90
56428;DHT22;42331;53.578;9.760;2022-08-19T04:58:15;18.10;99.90
56428;DHT22;42331;53.578;9.760;2022-08-19T05:00:52;18.10;99.90
56428;DHT22;42331;53.578;9.760;2022-08-19T05:03:35;18.10;99.90
56428;DHT22;42331;53.578;9.760;2022-08-19T05:06:11;18.20;99.90
56428;DHT22;42331;53.578;9.760;2022-08-19T05:08:43;18.20;99.90
56428;DHT22;42331;53.578;9.760;2022-08-19T05:11:30;18.10;99.90
56428;DHT22;42331;53.578;9.760;2022-08-19T05:14:02;18.10;99.90
56428;DHT22;42331;53.578;9.760;2022-08-19T05:16:33;18.10;99.90
56428;DHT22;42331;53.578;9.760;2022-08-19T05:19:04;18.10;99.90
56428;DHT22;42331;53.578;9.760;2022-08-19T05:21:54;18.00;99.90
56428;DHT22;42331;53.578;9.760;2022-08-19T05:24:46;18.10;99.90
56428;DHT22;42331;53.578;9.760;2022-08-19T05:27:19;18.10;99.90
56428;DHT22;42331;53.578;9.760;2022-08-19T05:29:50;18.10;99.90
56428;DHT22;42331;53.578;9.760;2022-08-19T05:32:21;18.10;99.90
56428;DHT22;42331;53.578;9.760;2022-08-19T05:34:58;18.20;99.90
56428;DHT22;42331;53.578;9.760;2022-08-19T05:37:29;18.20;99.90
56428;DHT22;42331;53.578;9.760;2022-08-19T05:40:00;18.20;99.90
56428;DHT22;42331;53.578;9.760;2022-08-19T05:42:31;18.20;99.90
56428;DHT22;42331;53.578;9.760;2022-08-19T05:45:02;18.20;99.90
56428;DHT22;42331;53.578;9.760;2022-08-19T05:47:34;18.20;99.90
56428;DHT22;42331;53.578;9.760;2022-08-19T05:50:08;18.20;99.90
56428;DHT22;42331;53.578;9.760;2022-08-19T05:52:47;18.20;99.90
56428;DHT22;42331;53.578;9.760;2022-08-19T05:55:19;18.20;99.90
56428;DHT22;42331;53.578;9.760;2022-08-19T05:57:50;18.30;99.90
56428;DHT22;42331;53.578;9.760;2022-08-19T06:00:21;18.30;99.90
56428;DHT22;42331;53.578;9.760;2022-08-19T06:02:52;18.30;99.90
56428;DHT22;42331;53.578;9.760;2022-08-19T06:05:26;18.30;99.90
56428;DHT22;42331;53.578;9.760;2022-08-19T06:07:57;18.20;99.90
56428;DHT22;42331;53.578;9.760;2022-08-19T06:10:29;18.20;99.90
56428;DHT22;42331;53.578;9.760;2022-08-19T06:13:00;18.30;99.90
56428;DHT22;42331;53.578;9.760;2022-08-19T06:15:31;18.30;99.90
56428;DHT22;42331;53.578;9.760;2022-08-19T06:18:02;18.30;99.90
56428;DHT22;42331;53.578;9.760;2022-08-19T06:20:34;18.30;99.90
56428;DHT22;42331;53.578;9.760;2022-08-19T06:23:04;18.30;99.90
56428;DHT22;42331;53.578;9.760;2022-08-19T06:25:42;18.30;99.90
56428;DHT22;42331;53.578;9.760;2022-08-19T06:28:13;18.30;99.90
56428;DHT22;42331;53.578;9.760;2022-08-19T06:30:43;18.40;99.90
56428;DHT22;42331;53.578;9.760;2022-08-19T06:33:15;18.40;99.90
56428;DHT22;42331;53.578;9.760;2022-08-19T06:35:45;18.40;99.90
56428;DHT22;42331;53.578;9.760;2022-08-19T06:38:16;18.40;99.90
56428;DHT22;42331;53.578;9.760;2022-08-19T06:40:47;18.50;99.90
56428;DHT22;42331;53.578;9.760;2022-08-19T06:43:17;18.50;99.90
56428;DHT22;42331;53.578;9.760;2022-08-19T06:45:48;18.50;99.90
56428;DHT22;42331;53.578;9.760;2022-08-19T06:48:22;18.50;99.90
56428;DHT22;42331;53.578;9.760;2022-08-19T06:50:53;18.50;99.90
56428;DHT22;42331;53.578;9.760;2022-08-19T06:53:24;18.60;99.90
56428;DHT22;42331;53.578;9.760;2022-08-19T06:55:55;18.60;99.90
56428;DHT22;42331;53.578;9.760;2022-08-19T06:58:31;18.70;99.90
56428;DHT22;42331;53.578;9.760;2022-08-19T07:01:04;18.60;99.90
56428;DHT22;42331;53.578;9.760;2022-08-19T07:03:36;18.70;99.90
56428;DHT22;42331;53.578;9.760;2022-08-19T07:06:12;18.70;99.90
56428;DHT22;42331;53.578;9.760;2022-08-19T07:08:47;18.70;99.90
56428;DHT22;42331;53.578;9.760;2022-08-19T07:11:18;18.70;99.90
56428;DHT22;42331;53.578;9.760;2022-08-19T07:13:50;18.70;99.90
56428;DHT22;42331;53.578;9.760;2022-08-19T07:16:21;18.60;99.90
56428;DHT22;42331;53.578;9.760;2022-08-19T07:18:52;18.60;99.90
56428;DHT22;42331;53.578;9.760;2022-08-19T07:21:26;18.60;99.90
56428;DHT22;42331;53.578;9.760;2022-08-19T07:23:59;18.60;99.90
56428;DHT22;42331;53.578;9.760;2022-08-19T07:26:33;18.60;99.90
56428;DHT22;42331;53.578;9.760;2022-08-19T07:29:04;18.70;99.90
56428;DHT22;42331;53.578;9.760;2022-08-19T07:31:35;18.70;99.90
56428;DHT22;42331;53.578;9.760;2022-08-19T07:34:07;18.80;99.90
56428;DHT22;42331;53.578;9.760;2022-08-19T07:36:40;18.90;99.90
56428;DHT22;42331;53.578;9.760;2022-08-19T07:39:19;18.90;99.90
56428;DHT22;42331;53.578;9.760;2022-08-19T07:41:50;19.00;99.90
56428;DHT22;42331;53.578;9.760;2022-08-19T07:44:21;18.80;99.90
56428;DHT22;42331;53.578;9.760;2022-08-19T07:46:55;18.80;99.90
56428;DHT22;42331;53.578;9.760;2022-08-19T07:49:27;18.80;99.90
56428;DHT22;42331;53.578;9.760;2022-08-19T07:52:05;18.80;99.90
56428;DHT22;42331;53.578;9.760;2022-08-19T07:54:37;18.70;99.90
56428;DHT22;42331;53.578;9.760;2022-08-19T07:57:08;18.60;99.90
56428;DHT22;42331;53.578;9.760;2022-08-19T07:59:39;18.60;99.90
56428;DHT22;42331;53.578;9.760;2022-08-19T08:02:10;18.60;99.90
56428;DHT22;42331;53.578;9.760;2022-08-19T08:04:41;18.50;99.90
56428;DHT22;42331;53.578;9.760;2022-08-19T08:07:30;18.50;99.90
56428;DHT22;42331;53.578;9.760;2022-08-19T08:10:33;18.50;99.90
56428;DHT22;42331;53.578;9.760;2022-08-19T08:13:04;18.50;99.90
56428;DHT22;42331;53.578;9.760;2022-08-19T08:15:37;18.50;99.90
56428;DHT22;42331;53.578;9.760;2022-08-19T08:18:10;18.50;99.90
56428;DHT22;42331;53.578;9.760;2022-08-19T08:20:40;18.50;99.90
56428;DHT22;42331;53.578;9.760;2022-08-19T08:23:11;18.60;99.90
56428;DHT22;42331;53.578;9.760;2022-08-19T08:25:57;18.60;99.90
56428;DHT22;42331;53.578;9.760;2022-08-19T08:28:29;18.60;99.90
56428;DHT22;42331;53.578;9.760;2022-08-19T08:31:00;18.70;99.90
56428;DHT22;42331;53.578;9.760;2022-08-19T08:33:30;18.70;99.90
56428;DHT22;42331;53.578;9.760;2022-08-19T08:36:04;18.70;99.90
56428;DHT22;42331;53.578;9.760;2022-08-19T08:38:35;18.80;99.90
56428;DHT22;42331;53.578;9.760;2022-08-19T08:43:52;18.70;99.90
56428;DHT22;42331;53.578;9.760;2022-08-19T08:46:34;18.70;99.90
56428;DHT22;42331;53.578;9.760;2022-08-19T08:51:52;18.80;99.90
56428;DHT22;42331;53.578;9.760;2022-08-19T08:54:33;18.80;99.90
56428;DHT22;42331;53.578;9.760;2022-08-19T08:57:12;18.90;99.90
56428;DHT22;42331;53.578;9.760;2022-08-19T08:59:46;18.90;99.90
56428;DHT22;42331;53.578;9.760;2022-08-19T09:02:21;19.00;99.90
56428;DHT22;42331;53.578;9.760;2022-08-19T09:04:54;18.90;99.90
56428;DHT22;42331;53.578;9.760;2022-08-19T09:10:39;19.00;99.90
56428;DHT22;42331;53.578;9.760;2022-08-19T09:16:16;19.10;99.90
56428;DHT22;42331;53.578;9.760;2022-08-19T09:18:52;19.10;99.90
56428;DHT22;42331;53.578;9.760;2022-08-19T09:21:25;19.10;99.90
56428;DHT22;42331;53.578;9.760;2022-08-19T09:23:56;19.10;99.90
56428;DHT22;42331;53.578;9.760;2022-08-19T09:26:28;19.10;99.90
56428;DHT22;42331;53.578;9.760;2022-08-19T09:28:59;19.10;99.90
56428;DHT22;42331;53.578;9.760;2022-08-19T09:31:30;19.10;99.90
56428;DHT22;42331;53.578;9.760;2022-08-19T09:34:03;19.20;99.90
56428;DHT22;42331;53.578;9.760;2022-08-19T09:36:36;19.30;99.90
56428;DHT22;42331;53.578;9.760;2022-08-19T09:39:09;19.30;99.90
56428;DHT22;42331;53.578;9.760;2022-08-19T09:41:41;19.30;99.90
56428;DHT22;42331;53.578;9.760;2022-08-19T09:44:11;19.30;99.90
56428;DHT22;42331;53.578;9.760;2022-08-19T09:46:43;19.30;99.90
56428;DHT22;42331;53.578;9.760;2022-08-19T09:49:15;19.30;99.90
56428;DHT22;42331;53.578;9.760;2022-08-19T09:51:46;19.30;99.90
56428;DHT22;42331;53.578;9.760;2022-08-19T09:54:19;19.30;99.90
56428;DHT22;42331;53.578;9.760;2022-08-19T09:56:54;19.40;99.90
56428;DHT22;42331;53.578;9.760;2022-08-19T09:59:25;19.50;99.90
56428;DHT22;42331;53.578;9.760;2022-08-19T10:01:56;19.50;99.90
56428;DHT22;42331;53.578;9.760;2022-08-19T10:04:26;19.50;99.90
56428;DHT22;42331;53.578;9.760;2022-08-19T10:07:17;19.40;99.90
56428;DHT22;42331;53.578;9.760;2022-08-19T10:09:48;19.40;99.90
56428;DHT22;42331;53.578;9.760;2022-08-19T10:12:18;19.40;99.90
56428;DHT22;42331;53.578;9.760;2022-08-19T10:14:49;19.30;99.90
56428;DHT22;42331;53.578;9.760;2022-08-19T10:17:21;19.30;99.90
56428;DHT22;42331;53.578;9.760;2022-08-19T10:19:52;19.20;99.90
56428;DHT22;42331;53.578;9.760;2022-08-19T10:22:23;19.30;99.90
56428;DHT22;42331;53.578;9.760;2022-08-19T10:24:54;19.30;99.90
56428;DHT22;42331;53.578;9.760;2022-08-19T10:27:25;19.30;99.90
56428;DHT22;42331;53.578;9.760;2022-08-19T10:29:55;19.40;99.90
56428;DHT22;42331;53.578;9.760;2022-08-19T10:32:26;19.40;99.90
56428;DHT22;42331;53.578;9.760;2022-08-19T10:34:58;19.40;99.90
56428;DHT22;42331;53.578;9.760;2022-08-19T10:37:29;19.40;99.90
56428;DHT22;42331;53.578;9.760;2022-08-19T10:40:01;19.60;99.90
56428;DHT22;42331;53.578;9.760;2022-08-19T10:42:32;19.60;99.90
56428;DHT22;42331;53.578;9.760;2022-08-19T10:45:04;19.70;99.90
56428;DHT22;42331;53.578;9.760;2022-08-19T10:47:36;19.80;99.90
56428;DHT22;42331;53.578;9.760;2022-08-19T10:50:07;19.90;99.90
56428;DHT22;42331;53.578;9.760;2022-08-19T10:52:56;19.80;99.90
56428;DHT22;42331;53.578;9.760;2022-08-19T10:55:27;19.80;99.90
56428;DHT22;42331;53.578;9.760;2022-08-19T10:58:19;19.80;99.90
56428;DHT22;42331;53.578;9.760;2022-08-19T11:00:57;19.90;99.90
56428;DHT22;42331;53.578;9.760;2022-08-19T11:03:28;20.00;99.90
56428;DHT22;42331;53.578;9.760;2022-08-19T11:06:02;20.00;99.90
56428;DHT22;42331;53.578;9.760;2022-08-19T11:08:34;20.00;99.90
56428;DHT22;42331;53.578;9.760;2022-08-19T11:11:06;20.00;99.90
56428;DHT22;42331;53.578;9.760;2022-08-19T11:13:39;20.10;99.90
56428;DHT22;42331;53.578;9.760;2022-08-19T11:16:15;20.00;99.90
56428;DHT22;42331;53.578;9.760;2022-08-19T11:18:49;20.00;99.90
56428;DHT22;42331;53.578;9.760;2022-08-19T11:21:28;20.00;99.90
56428;DHT22;42331;53.578;9.760;2022-08-19T11:24:05;20.10;99.90
56428;DHT22;42331;53.578;9.760;2022-08-19T11:26:37;20.20;99.90
56428;DHT22;42331;53.578;9.760;2022-08-19T11:29:10;20.30;99.90
56428;DHT22;42331;53.578;9.760;2022-08-19T11:31:44;20.30;99.90
56428;DHT22;42331;53.578;9.760;2022-08-19T11:34:18;20.40;99.90
56428;DHT22;42331;53.578;9.760;2022-08-19T11:36:50;20.50;99.90
56428;DHT22;42331;53.578;9.760;2022-08-19T11:39:22;20.50;99.90
56428;DHT22;42331;53.578;9.760;2022-08-19T11:41:52;20.60;99.90
56428;DHT22;42331;53.578;9.760;2022-08-19T11:44:23;20.60;99.90
56428;DHT22;42331;53.578;9.760;2022-08-19T11:46:54;20.70;99.90
56428;DHT22;42331;53.578;9.760;2022-08-19T11:49:25;20.80;99.90
56428;DHT22;42331;53.578;9.760;2022-08-19T11:51:56;21.10;99.90
56428;DHT22;42331;53.578;9.760;2022-08-19T11:54:28;21.40;99.90
56428;DHT22;42331;53.578;9.760;2022-08-19T11:56:59;21.70;99.90
56428;DHT22;42331;53.578;9.760;2022-08-19T11:59:31;22.10;99.90
56428;DHT22;42331;53.578;9.760;2022-08-19T12:02:02;22.20;99.90
56428;DHT22;42331;53.578;9.760;2022-08-19T12:04:33;22.40;99.90
56428;DHT22;42331;53.578;9.760;2022-08-19T12:07:03;22.50;99.90
56428;DHT22;42331;53.578;9.760;2022-08-19T12:09:35;22.30;99.90
56428;DHT22;42331;53.578;9.760;2022-08-19T12:12:06;22.10;99.90
56428;DHT22;42331;53.578;9.760;2022-08-19T12:14:37;21.80;99.90
56428;DHT22;42331;53.578;9.760;2022-08-19T12:17:17;21.70;99.90
56428;DHT22;42331;53.578;9.760;2022-08-19T12:19:47;21.70;99.90
56428;DHT22;42331;53.578;9.760;2022-08-19T12:22:18;21.60;99.90
56428;DHT22;42331;53.578;9.760;2022-08-19T12:24:51;21.50;99.90
56428;DHT22;42331;53.578;9.760;2022-08-19T12:27:23;21.50;99.90
56428;DHT22;42331;53.578;9.760;2022-08-19T12:29:54;21.60;99.90
56428;DHT22;42331;53.578;9.760;2022-08-19T12:32:25;21.60;99.90
56428;DHT22;42331;53.578;9.760;2022-08-19T12:34:56;21.60;99.90
56428;DHT22;42331;53.578;9.760;2022-08-19T12:37:27;21.70;99.90
56428;DHT22;42331;53.578;9.760;2022-08-19T12:39:58;21.80;99.90
56428;DHT22;42331;53.578;9.760;2022-08-19T12:42:29;21.80;99.90
56428;DHT22;42331;53.578;9.760;2022-08-19T12:45:00;21.80;99.90
56428;DHT22;42331;53.578;9.760;2022-08-19T12:47:31;21.70;99.90
56428;DHT22;42331;53.578;9.760;2022-08-19T12:50:02;21.70;99.90
56428;DHT22;42331;53.578;9.760;2022-08-19T12:52:34;21.70;99.90
56428;DHT22;42331;53.578;9.760;2022-08-19T12:55:08;21.80;99.90
56428;DHT22;42331;53.578;9.760;2022-08-19T12:57:39;21.70;99.90
56428;DHT22;42331;53.578;9.760;2022-08-19T13:00:27;21.70;99.90
56428;DHT22;42331;53.578;9.760;2022-08-19T13:02:59;21.60;99.90
56428;DHT22;42331;53.578;9.760;2022-08-19T13:05:32;21.60;99.90
56428;DHT22;42331;53.578;9.760;2022-08-19T13:08:08;21.60;99.90
56428;DHT22;42331;53.578;9.760;2022-08-19T13:10:38;21.70;99.90
56428;DHT22;42331;53.578;9.760;2022-08-19T13:13:09;21.70;99.90
56428;DHT22;42331;53.578;9.760;2022-08-19T13:15:41;21.60;99.90
56428;DHT22;42331;53.578;9.760;2022-08-19T13:18:12;21.60;99.90
56428;DHT22;42331;53.578;9.760;2022-08-19T13:20:43;21.50;99.90
56428;DHT22;42331;53.578;9.760;2022-08-19T13:23:17;21.50;99.90
56428;DHT22;42331;53.578;9.760;2022-08-19T13:25:59;21.50;99.90
56428;DHT22;42331;53.578;9.760;2022-08-19T13:28:30;21.50;99.90
56428;DHT22;42331;53.578;9.760;2022-08-19T13:31:22;21.50;99.90
56428;DHT22;42331;53.578;9.760;2022-08-19T13:34:13;21.50;99.90
56428;DHT22;42331;53.578;9.760;2022-08-19T13:36:58;21.50;99.90
56428;DHT22;42331;53.578;9.760;2022-08-19T13:42:36;21.60;99.90
56428;DHT22;42331;53.578;9.760;2022-08-19T13:45:10;21.60;99.90
56428;DHT22;42331;53.578;9.760;2022-08-19T13:47:42;21.80;99.90
56428;DHT22;42331;53.578;9.760;2022-08-19T13:50:44;21.80;99.90
56428;DHT22;42331;53.578;9.760;2022-08-19T13:53:27;21.90;99.90
56428;DHT22;42331;53.578;9.760;2022-08-19T13:56:00;22.00;99.90
56428;DHT22;42331;53.578;9.760;2022-08-19T13:58:35;22.00;99.90
56428;DHT22;42331;53.578;9.760;2022-08-19T14:01:06;22.00;99.90
56428;DHT22;42331;53.578;9.760;2022-08-19T14:03:37;22.10;99.90
56428;DHT22;42331;53.578;9.760;2022-08-19T14:06:08;21.90;99.90
56428;DHT22;42331;53.578;9.760;2022-08-19T14:08:39;21.90;99.90
56428;DHT22;42331;53.578;9.760;2022-08-19T14:11:13;21.90;99.90
56428;DHT22;42331;53.578;9.760;2022-08-19T14:13:45;22.00;99.90
56428;DHT22;42331;53.578;9.760;2022-08-19T14:16:16;22.10;99.90
56428;DHT22;42331;53.578;9.760;2022-08-19T14:18:47;22.20;99.90
56428;DHT22;42331;53.578;9.760;2022-08-19T14:21:31;22.10;99.90
56428;DHT22;42331;53.578;9.760;2022-08-19T14:24:01;22.10;99.90
56428;DHT22;42331;53.578;9.760;2022-08-19T14:26:32;22.10;99.90
56428;DHT22;42331;53.578;9.760;2022-08-19T14:29:07;22.10;99.90
56428;DHT22;42331;53.578;9.760;2022-08-19T14:31:38;22.10;99.90
56428;DHT22;42331;53.578;9.760;2022-08-19T14:34:10;22.30;99.90
56428;DHT22;42331;53.578;9.760;2022-08-19T14:36:58;22.40;99.90
56428;DHT22;42331;53.578;9.760;2022-08-19T14:39:31;22.70;99.90
56428;DHT22;42331;53.578;9.760;2022-08-19T14:42:09;22.80;99.90
56428;DHT22;42331;53.578;9.760;2022-08-19T14:44:43;22.80;99.90
56428;DHT22;42331;53.578;9.760;2022-08-19T14:47:14;22.70;99.90
56428;DHT22;42331;53.578;9.760;2022-08-19T14:49:45;22.80;99.90
56428;DHT22;42331;53.578;9.760;2022-08-19T14:52:16;22.90;99.90
56428;DHT22;42331;53.578;9.760;2022-08-19T14:54:46;22.90;99.90
56428;DHT22;42331;53.578;9.760;2022-08-19T14:57:17;22.80;99.90
56428;DHT22;42331;53.578;9.760;2022-08-19T14:59:48;22.70;99.90
56428;DHT22;42331;53.578;9.760;2022-08-19T15:02:19;22.60;99.90
56428;DHT22;42331;53.578;9.760;2022-08-19T15:04:50;22.70;99.90
56428;DHT22;42331;53.578;9.760;2022-08-19T15:07:21;22.60;99.90
56428;DHT22;42331;53.578;9.760;2022-08-19T15:09:52;22.70;99.90
56428;DHT22;42331;53.578;9.760;2022-08-19T15:12:23;22.60;99.90
56428;DHT22;42331;53.578;9.760;2022-08-19T15:14:54;22.70;99.90
56428;DHT22;42331;53.578;9.760;2022-08-19T15:17:25;22.70;99.90
56428;DHT22;42331;53.578;9.760;2022-08-19T15:19:56;22.80;99.90
56428;DHT22;42331;53.578;9.760;2022-08-19T15:22:26;22.80;99.90
56428;DHT22;42331;53.578;9.760;2022-08-19T15:24:57;22.80;99.90
56428;DHT22;42331;53.578;9.760;2022-08-19T15:27:28;22.80;99.90
56428;DHT22;42331;53.578;9.760;2022-08-19T15:29:59;22.80;99.90
56428;DHT22;42331;53.578;9.760;2022-08-19T15:32:29;22.80;99.90
56428;DHT22;42331;53.578;9.760;2022-08-19T15:35:00;22.70;99.90
56428;DHT22;42331;53.578;9.760;2022-08-19T15:37:33;22.60;99.90
56428;DHT22;42331;53.578;9.760;2022-08-19T15:40:05;22.60;99.90
56428;DHT22;42331;53.578;9.760;2022-08-19T15:42:44;22.70;99.90
56428;DHT22;42331;53.578;9.760;2022-08-19T15:45:17;22.60;99.90
56428;DHT22;42331;53.578;9.760;2022-08-19T15:47:48;22.60;99.90
56428;DHT22;42331;53.578;9.760;2022-08-19T15:50:19;22.60;99.90
56428;DHT22;42331;53.578;9.760;2022-08-19T15:52:52;22.50;99.90
56428;DHT22;42331;53.578;9.760;2022-08-19T15:55:28;22.50;99.90
56428;DHT22;42331;53.578;9.760;2022-08-19T15:58:05;22.50;99.90
56428;DHT22;42331;53.578;9.760;2022-08-19T16:01:08;22.30;99.90
56428;DHT22;42331;53.578;9.760;2022-08-19T16:04:20;22.20;99.90
56428;DHT22;42331;53.578;9.760;2022-08-19T16:07:21;22.30;99.90
56428;DHT22;42331;53.578;9.760;2022-08-19T16:09:59;22.30;99.90
56428;DHT22;42331;53.578;9.760;2022-08-19T16:12:30;22.30;99.90
56428;DHT22;42331;53.578;9.760;2022-08-19T16:15:01;22.30;99.90
56428;DHT22;42331;53.578;9.760;2022-08-19T16:17:41;22.20;99.90
56428;DHT22;42331;53.578;9.760;2022-08-19T16:20:13;22.30;99.90
56428;DHT22;42331;53.578;9.760;2022-08-19T16:22:51;22.20;99.90
56428;DHT22;42331;53.578;9.760;2022-08-19T16:25:23;22.20;99.90
56428;DHT22;42331;53.578;9.760;2022-08-19T16:27:58;22.30;99.90
56428;DHT22;42331;53.578;9.760;2022-08-19T16:30:28;22.20;99.90
56428;DHT22;42331;53.578;9.760;2022-08-19T16:33:02;22.20;99.90
56428;DHT22;42331;53.578;9.760;2022-08-19T16:35:36;22.20;99.90